Latest Weather Observations for Luncheon Hill

IDT60801

Issued at 2:32 pm EDT Friday 9 December 2016 (issued every 30 minutes, with the page automatically refreshed every 10 minutes)

About weather observations | Map of weather stations | Latest weather observations for TAS | Other Formats
Station Details ID: 091259 Name: LUNCHEON HILL (FORESTRY) Lat: -41.15 Lon: 145.15 Height: 344.0 m
Data from the previous 72 hours. | See also: Recent months at Luncheon Hill
Date/Time
EDT
Temp
°C
App
Temp
°C
Dew
Point
°C
Rel
Hum
%
Delta-T
°C
Wind Press
QNH
hPa
Press
MSL
hPa
Rain since
9am
mm
Dir  Spd
km/h
Gust
km/h
Spd
kts
Gust
kts
09/02:30pm 10.0 0.7 2.8 61 3.2 SW 41 67 22 36 - - 0.0
09/02:00pm 10.4 1.1 3.2 61 3.2 SSW 41 65 22 35 - - 0.0
09/01:30pm 10.0 0.1 2.8 61 3.2 SSW 44 67 24 36 - - 0.0
09/01:00pm 10.3 1.4 3.1 61 3.2 SSW 39 65 21 35 - - 0.0
09/12:30pm 10.3 1.8 3.1 61 3.2 SSW 37 63 20 34 - - 0.0
09/12:00pm 9.5 0.2 3.0 64 2.8 SSW 41 65 22 35 - - 0.0
09/11:30am 10.0 1.2 3.5 64 2.9 SSW 39 69 21 37 - - 0.0
09/11:00am 9.2 -0.2 4.4 72 2.2 SSW 43 70 23 38 - - 0.0
09/10:30am 8.9 -1.2 3.5 69 2.4 SSW 46 72 25 39 - - 0.0
09/10:00am 9.0 1.0 3.8 70 2.3 SSW 35 61 19 33 - - 0.0
09/09:30am 8.5 -1.7 3.4 70 2.2 SSW 46 70 25 38 - - 0.0
09/09:00am 7.9 0.1 5.0 82 1.3 SSW 35 59 19 32 - - 16.8
09/08:30am 7.9 0.0 6.2 89 0.8 SSW 37 57 20 31 - - 16.8
09/08:00am 7.0 -0.5 6.3 95 0.3 SSW 35 63 19 34 - - 16.8
09/07:30am 5.8 -1.5 4.6 92 0.5 SSW 32 56 17 30 - - 16.8
09/07:00am 5.4 -1.6 4.2 92 0.5 SSW 30 59 16 32 - - 16.6
09/06:30am 5.2 -2.8 3.7 90 0.6 SSW 35 57 19 31 - - 16.6
09/06:00am 5.3 -3.5 3.5 88 0.8 SSW 39 57 21 31 - - 16.2
09/05:33am 4.9 -3.1 3.9 93 0.4 SSW 35 54 19 29 - - 16.2
09/05:30am 4.9 -3.5 3.9 93 0.4 SSW 37 54 20 29 - - 16.2
09/05:00am 5.3 -2.7 4.0 91 0.6 SSW 35 56 19 30 - - 16.0
09/04:30am 5.7 -3.2 3.2 84 1.1 SW 39 59 21 32 - - 16.0
09/04:00am 5.3 -2.8 3.5 88 0.8 SSW 35 54 19 29 - - 15.8
09/03:30am 5.5 -2.6 3.5 87 0.9 SSW 35 54 19 29 - - 15.8
09/03:00am 5.8 -2.6 3.8 87 0.9 SSW 37 59 20 32 - - 15.8
09/02:30am 5.6 -2.3 4.2 91 0.6 SSW 35 54 19 29 - - 15.8
09/02:00am 6.0 -2.2 4.5 90 0.7 SSW 37 56 20 30 - - 15.4
09/01:30am 6.2 -2.3 5.2 93 0.4 SSW 39 72 21 39 - - 15.4
09/01:00am 6.1 -2.3 5.4 95 0.3 SSW 39 57 21 31 - - 15.2
09/12:30am 7.0 -0.5 6.3 95 0.3 SW 35 63 19 34 - - 15.0
09/12:00am 6.9 -0.6 6.5 97 0.2 SW 35 59 19 32 - - 15.0
 
Date/Time
EDT
Temp
°C
App
Temp
°C
Dew
Point
°C
Rel
Hum
%
Delta-T
°C
Wind Press
QNH
hPa
Press
MSL
hPa
Rain since
9am
mm
Dir  Spd
km/h
Gust
km/h
Spd
kts
Gust
kts
08/11:33pm 6.9 -0.9 6.6 98 0.1 SSW 37 63 20 34 - - 15.0
08/11:30pm 6.8 -1.0 6.5 98 0.1 SSW 37 54 20 29 - - 15.0
08/11:00pm 7.0 -1.6 6.7 98 0.1 SW 41 70 22 38 - - 14.6
08/10:30pm 7.3 -1.6 7.0 98 0.1 SW 43 72 23 39 - - 14.0
08/10:00pm 7.5 -1.3 7.2 98 0.1 SW 43 67 23 36 - - 13.2
08/09:30pm 7.9 -0.4 7.6 98 0.1 SW 41 69 22 37 - - 12.4
08/09:00pm 8.1 -0.2 7.8 98 0.1 SW 41 67 22 36 - - 11.6
08/08:30pm 8.7 1.7 8.3 97 0.2 SW 35 69 19 37 - - 10.4
08/08:00pm 8.9 1.9 8.5 97 0.2 SW 35 61 19 33 - - 9.8
08/07:30pm 9.2 2.6 8.7 97 0.2 SW 33 63 18 34 - - 9.4
08/07:00pm 9.4 3.1 8.9 97 0.2 WSW 32 57 17 31 - - 9.2
08/06:32pm 9.4 3.8 8.9 97 0.2 WSW 28 61 15 33 - - 9.0
08/06:30pm 9.4 4.2 8.9 97 0.2 WSW 26 48 14 26 - - 9.0
08/06:00pm 9.5 3.0 9.0 97 0.3 W 33 57 18 31 - - 8.2
08/05:34pm 9.6 4.1 9.0 96 0.3 W 28 57 15 31 - - 7.4
08/05:30pm 9.7 4.6 9.1 96 0.3 W 26 46 14 25 - - 7.2
08/05:00pm 10.2 4.4 9.4 95 0.4 W 30 50 16 27 - - 5.4
08/04:30pm 10.5 4.7 9.6 94 0.5 W 30 56 16 30 - - 5.2
08/04:05pm 11.4 6.1 9.8 90 0.8 W 28 46 15 25 - - 4.8
08/04:00pm 11.8 7.8 10.5 92 0.7 W 22 39 12 21 - - 4.8
08/03:32pm 12.2 6.0 11.3 94 0.5 WNW 35 54 19 29 - - 4.6
08/03:30pm 12.2 5.6 11.4 95 0.4 WNW 37 54 20 29 - - 4.6
08/03:05pm 11.7 4.6 10.9 95 0.4 NW 39 56 21 30 - - 4.6
08/03:00pm 11.7 3.8 10.9 95 0.4 NW 43 59 23 32 - - 4.6
08/02:49pm 11.6 2.2 10.2 91 0.7 NNW 50 69 27 37 - - 4.4
08/02:46pm 11.9 2.2 10.3 90 0.8 NNW 52 74 28 40 - - 4.2
08/02:32pm 12.4 1.1 9.6 83 1.4 NNW 59 85 32 46 - - 4.2
08/02:30pm 12.5 1.6 9.5 82 1.6 NNW 57 78 31 42 - - 4.2
08/02:27pm 12.6 2.2 9.4 81 1.7 NNW 54 78 29 42 - - 4.2
08/02:00pm 11.8 3.3 9.4 85 1.2 NNW 44 67 24 36 - - 4.2
08/01:30pm 11.5 3.7 9.6 88 1.0 NNW 41 61 22 33 - - 4.2
08/01:00pm 13.4 3.6 8.7 73 2.4 NNW 50 72 27 39 - - 4.0
08/12:30pm 13.2 3.5 9.1 76 2.1 NW 50 72 27 39 - - 4.0
08/12:00pm 13.7 5.7 10.5 81 1.7 NW 43 63 23 34 - - 4.0
08/11:30am 13.3 5.3 11.0 86 1.2 NW 44 70 24 38 - - 4.0
08/11:06am 13.1 5.0 12.2 94 0.5 NW 46 70 25 38 - - 4.0
08/11:00am 13.5 5.7 12.9 96 0.3 NW 46 63 25 34 - - 4.0
08/10:30am 13.6 5.5 13.3 98 0.2 NW 48 69 26 37 - - 4.0
08/10:23am 13.9 6.9 13.6 98 0.2 NNW 43 67 23 36 - - 4.0
08/10:22am 14.0 7.0 13.7 98 0.2 NNW 43 67 23 36 - - 4.0
08/10:00am 14.1 7.1 13.8 98 0.2 N 43 63 23 34 - - 2.6
08/09:43am 13.6 6.5 13.3 98 0.2 N 43 61 23 33 - - 2.0
08/09:30am 13.2 6.7 12.9 98 0.2 NNE 39 52 21 28 - - 1.6
08/09:08am 13.2 4.2 12.7 97 0.3 NE 52 72 28 39 - - 0.4
08/09:00am 13.1 3.3 12.6 97 0.3 NE 56 82 30 44 - - 10.0
08/08:42am 12.8 4.4 12.3 97 0.3 NE 48 67 26 36 - - 9.0
08/08:30am 12.7 3.5 12.2 97 0.3 NE 52 67 28 36 - - 8.0
08/08:00am 12.4 3.5 11.9 97 0.3 NE 50 69 27 37 - - 6.4
08/07:40am 12.3 3.4 11.8 97 0.3 NE 50 69 27 37 - - 5.0
08/07:30am 12.2 2.9 11.7 97 0.3 NE 52 69 28 37 - - 5.0
08/07:00am 12.0 3.4 11.5 97 0.3 NE 48 67 26 36 - - 4.6
08/06:32am 11.1 3.1 10.6 97 0.3 ENE 43 63 23 34 - - 3.6
08/06:30am 11.1 3.5 10.6 97 0.3 ENE 41 54 22 29 - - 3.4
08/06:00am 10.9 2.6 10.1 95 0.4 ENE 44 63 24 34 - - 2.0
08/05:30am 10.8 3.3 9.6 92 0.6 ENE 39 57 21 31 - - 1.4
08/05:00am 10.9 1.1 8.8 87 1.1 ENE 50 70 27 38 - - 0.8
08/04:30am 10.9 2.5 9.5 91 0.7 ENE 44 65 24 35 - - 0.4
08/04:00am 11.3 3.0 9.2 87 1.1 ENE 43 63 23 34 - - 0.2
08/03:30am 10.9 3.4 9.3 90 0.8 ENE 39 65 21 35 - - 0.2
08/03:20am 10.8 3.3 9.4 91 0.7 ENE 39 57 21 31 - - 0.2
08/03:00am 11.0 3.5 9.3 89 0.9 ENE 39 54 21 29 - - 0.0
08/02:32am 11.1 5.1 8.7 85 1.2 ENE 30 54 16 29 - - 0.0
08/02:30am 11.1 5.1 8.7 85 1.2 ENE 30 46 16 25 - - 0.0
08/02:03am 10.9 4.4 8.8 87 1.1 ENE 33 52 18 28 - - 0.0
08/02:00am 10.9 3.6 8.8 87 1.1 ENE 37 52 20 28 - - 0.0
08/01:30am 10.7 3.9 9.1 90 0.8 ENE 35 54 19 29 - - 0.0
08/01:19am 10.6 4.4 9.4 92 0.6 ENE 32 50 17 27 - - 0.0
08/01:00am 10.3 4.1 9.5 95 0.4 ENE 32 44 17 24 - - 0.0
08/12:30am 10.1 3.2 9.0 93 0.6 ENE 35 48 19 26 - - 0.0
08/12:00am 11.0 4.5 8.8 86 1.1 ENE 33 44 18 24 - - 0.0
 
Date/Time
EDT
Temp
°C
App
Temp
°C
Dew
Point
°C
Rel
Hum
%
Delta-T
°C
Wind Press
QNH
hPa
Press
MSL
hPa
Rain since
9am
mm
Dir  Spd
km/h
Gust
km/h
Spd
kts
Gust
kts
07/11:30pm 11.4 5.4 8.8 84 1.3 ENE 30 39 16 21 - - 0.0
07/11:00pm 11.6 6.1 9.0 84 1.3 ENE 28 35 15 19 - - 0.0
07/10:30pm 11.4 7.7 10.0 91 0.7 E 20 30 11 16 - - 0.0
07/10:00pm 11.4 7.4 10.3 93 0.6 NE 22 26 12 14 - - 0.0
07/09:30pm 11.6 7.2 10.3 92 0.7 NE 24 26 13 14 - - 0.0
07/09:00pm 12.2 9.1 10.4 89 0.9 ENE 17 22 9 12 - - 0.0
07/08:30pm 12.8 9.2 10.5 86 1.2 N 20 26 11 14 - - 0.0
07/08:00pm 13.8 10.2 10.4 80 1.8 N 20 26 11 14 - - 0.0
07/07:30pm 13.9 11.6 10.3 79 1.9 N 13 17 7 9 - - 0.0
07/07:00pm 14.3 10.9 10.5 78 2.0 N 19 24 10 13 - - 0.0
07/06:30pm 14.5 11.6 10.9 79 1.9 NNW 17 24 9 13 - - 0.0
07/06:00pm 15.0 11.6 10.6 75 2.4 N 19 26 10 14 - - 0.0
07/05:30pm 15.9 11.3 9.6 66 3.3 NW 24 32 13 17 - - 0.0
07/05:00pm 15.9 11.2 9.3 65 3.5 NW 24 33 13 18 - - 0.0
07/04:30pm 17.0 12.3 10.8 67 3.4 NNW 26 39 14 21 - - 0.0
07/04:00pm 16.1 11.4 10.6 70 3.0 WNW 26 43 14 23 - - 0.0
07/03:30pm 15.8 10.3 9.2 65 3.5 NNW 28 37 15 20 - - 0.0
07/03:00pm 15.9 12.7 11.1 73 2.6 WNW 19 28 10 15 - - 0.0
07/02:30pm 14.8 10.3 10.0 73 2.5 NW 24 32 13 17 - - 0.0
07/02:00pm 15.9 13.4 10.9 72 2.7 WNW 15 24 8 13 - - 0.0
07/01:30pm 14.3 12.4 10.5 78 2.0 W 11 17 6 9 - - 0.0
07/01:00pm 13.5 10.6 11.0 85 1.3 WNW 17 24 9 13 - - 0.0
07/12:30pm 13.2 9.9 10.9 86 1.2 NW 19 24 10 13 - - 0.0
07/12:00pm 14.2 10.8 11.2 82 1.6 NW 20 30 11 16 - - 0.0
07/11:30am 13.6 10.2 11.3 86 1.2 WNW 20 28 11 15 - - 0.0
07/11:00am 12.9 9.5 11.1 89 1.0 NW 20 30 11 16 - - 0.0
07/10:30am 13.2 10.3 12.4 95 0.4 NW 19 26 10 14 - - 0.0
07/10:00am 12.0 8.9 11.5 97 0.3 NW 19 24 10 13 - - 0.0
07/09:30am 11.8 8.6 11.3 97 0.3 NW 19 26 10 14 - - 0.0
07/09:00am 11.6 9.2 11.3 98 0.2 NW 15 20 8 11 - - 3.6
07/08:30am 10.8 8.1 10.5 98 0.2 NW 15 20 8 11 - - 3.6
07/08:00am 10.8 7.8 10.5 98 0.2 NW 17 24 9 13 - - 3.4
07/07:30am 10.5 7.4 10.2 98 0.2 NW 17 19 9 10 - - 3.4
07/07:00am 10.1 6.9 9.8 98 0.2 NW 17 20 9 11 - - 3.4
07/06:30am 9.7 6.0 9.4 98 0.2 WNW 19 22 10 12 - - 3.4
07/06:00am 9.4 6.4 9.1 98 0.2 WNW 15 20 8 11 - - 3.4
07/05:30am 9.4 6.3 8.9 97 0.2 WNW 15 19 8 10 - - 3.4
07/05:00am 9.4 6.3 8.9 97 0.2 W 15 19 8 10 - - 3.4
07/04:30am 9.5 6.1 9.0 97 0.3 WNW 17 20 9 11 - - 3.4
07/04:00am 9.4 5.9 8.9 97 0.2 WNW 17 20 9 11 - - 3.4
07/03:30am 9.2 6.1 8.7 97 0.2 WNW 15 19 8 10 - - 3.4
07/03:00am 9.4 6.3 8.8 96 0.3 WNW 15 20 8 11 - - 3.4
07/02:30am 9.6 6.5 9.0 96 0.3 W 15 26 8 14 - - 3.4
07/02:00am 9.5 6.4 8.9 96 0.3 W 15 24 8 13 - - 3.4
07/01:30am 9.3 6.2 8.8 97 0.2 W 15 22 8 12 - - 3.4
07/01:00am 9.2 6.1 8.7 97 0.2 W 15 20 8 11 - - 3.2
07/12:30am 9.2 6.4 8.7 97 0.2 W 13 19 7 10 - - 3.2
07/12:00am 9.4 6.3 8.8 96 0.3 WNW 15 19 8 10 - - 3.2
 
Date/Time
EDT
Temp
°C
App
Temp
°C
Dew
Point
°C
Rel
Hum
%
Delta-T
°C
Wind Press
QNH
hPa
Press
MSL
hPa
Rain since
9am
mm
Dir  Spd
km/h
Gust
km/h
Spd
kts
Gust
kts
06/11:30pm 9.6 6.2 9.0 96 0.3 WNW 17 24 9 13 - - 3.2
06/11:00pm 10.0 7.4 9.2 95 0.4 W 13 17 7 9 - - 2.2
06/10:30pm 10.0 7.3 9.1 94 0.5 WNW 13 19 7 10 - - 0.6
06/10:00pm 10.3 7.9 8.7 90 0.8 WNW 11 15 6 8 - - 0.0
06/09:30pm 10.8 7.8 7.9 82 1.4 W 13 19 7 10 - - 0.0
06/09:00pm 10.9 7.2 7.8 81 1.5 W 17 26 9 14 - - 0.0
06/08:30pm 11.0 7.2 7.7 80 1.6 W 17 26 9 14 - - 0.0
06/08:00pm 11.6 7.4 7.5 76 2.0 W 19 30 10 16 - - 0.0
06/07:30pm 12.1 8.5 6.8 70 2.6 WSW 15 24 8 13 - - 0.0
06/07:00pm 12.9 9.6 6.3 64 3.2 WSW 13 26 7 14 - - 0.0
06/06:30pm 13.6 8.7 5.0 56 4.1 WSW 20 37 11 20 - - 0.0
06/06:00pm 13.6 8.3 5.0 56 4.1 WSW 22 39 12 21 - - 0.0
06/05:30pm 13.5 8.6 5.2 57 3.9 WSW 20 35 11 19 - - 0.0
06/05:00pm 14.2 9.1 6.1 58 3.9 WSW 22 41 12 22 - - 0.0
06/04:30pm 13.6 8.4 5.5 58 3.9 WSW 22 39 12 21 - - 0.0
06/04:00pm 13.5 7.9 5.4 58 3.9 WSW 24 43 13 23 - - 0.0
06/03:30pm 14.1 9.3 5.5 56 4.1 WSW 20 35 11 19 - - 0.0
06/03:00pm 13.4 7.8 5.3 58 3.9 WSW 24 39 13 21 - - 0.0

Other Formats:

Comma delimited format used in spreadsheet applications
http://www.bom.gov.au/fwo/IDT60801/IDT60801.95956.axf

JavaScript Object Notation format (JSON) in row-major order
http://www.bom.gov.au/fwo/IDT60801/IDT60801.95956.json